createdAt,value
2022-09-22T00:01:40.283Z,101421.44
2022-09-22T00:06:47.337Z,101421.13
2022-09-22T00:11:54.024Z,101423.59
2022-09-22T00:16:58.649Z,101414.19
2022-09-22T00:22:01.045Z,101415.78
2022-09-22T00:27:05.112Z,101416.28
2022-09-22T00:32:07.841Z,101410.34
2022-09-22T00:37:10.379Z,101418.69
2022-09-22T00:42:14.466Z,101407.53
2022-09-22T00:47:28.129Z,101395.94
2022-09-22T00:52:34.357Z,101401.38
2022-09-22T00:57:40.465Z,101401.56
2022-09-22T01:02:43.312Z,101401.03
2022-09-22T01:07:47.607Z,101403.41
2022-09-22T01:13:02.709Z,101399.75
2022-09-22T01:18:16.461Z,101395.78
2022-09-22T01:23:42.537Z,101395.34
2022-09-22T01:29:18.586Z,101390.00
2022-09-22T01:34:30.028Z,101380.69
2022-09-22T01:39:39.880Z,101382.03
2022-09-22T01:44:49.225Z,101377.69
2022-09-22T01:49:57.694Z,101380.69
2022-09-22T01:55:04.942Z,101375.56
2022-09-22T02:00:10.088Z,101375.91
2022-09-22T02:05:19.470Z,101369.59
2022-09-22T02:10:29.209Z,101365.44
2022-09-22T02:15:49.833Z,101367.78
2022-09-22T02:20:53.811Z,101368.50
2022-09-22T02:25:56.755Z,101366.16
2022-09-22T02:31:19.627Z,101367.94
2022-09-22T02:36:51.823Z,101362.72
2022-09-22T02:42:07.546Z,101371.47
2022-09-22T02:47:15.034Z,101365.22
2022-09-22T02:52:21.071Z,101350.97
2022-09-22T02:57:23.992Z,101362.88
2022-09-22T03:02:26.751Z,101359.03
2022-09-22T03:07:30.680Z,101354.91
2022-09-22T03:12:33.173Z,101354.13
2022-09-22T03:17:35.664Z,101350.66
2022-09-22T03:22:40.513Z,101350.09
2022-09-22T03:27:43.214Z,101347.88
2022-09-22T03:32:48.508Z,101353.31
2022-09-22T03:37:52.339Z,101353.16
2022-09-22T03:42:54.978Z,101355.22
2022-09-22T03:47:59.031Z,101351.03
2022-09-22T03:53:02.813Z,101351.22
2022-09-22T03:58:05.277Z,101346.16
2022-09-22T04:03:08.856Z,101344.22
2022-09-22T04:08:12.789Z,101346.13
2022-09-22T04:13:15.924Z,101342.81
2022-09-22T04:18:18.445Z,101348.25
2022-09-22T04:23:22.264Z,101331.78
2022-09-22T04:28:25.074Z,101327.47
2022-09-22T04:33:28.071Z,101324.19
2022-09-22T04:38:31.889Z,101329.03
2022-09-22T04:43:34.361Z,101320.66
2022-09-22T04:48:37.154Z,101339.53
2022-09-22T04:53:40.954Z,101338.84
2022-09-22T04:58:43.411Z,101344.84
2022-09-22T05:03:46.108Z,101339.19
2022-09-22T05:08:49.905Z,101344.16
2022-09-22T05:14:00.199Z,101348.66
2022-09-22T05:19:02.682Z,101342.38
2022-09-22T05:24:06.994Z,101348.38
2022-09-22T05:29:09.989Z,101350.84
2022-09-22T05:34:12.628Z,101350.66
2022-09-22T05:39:16.709Z,101345.31
2022-09-22T05:44:19.555Z,101355.88
2022-09-22T05:49:22.020Z,101359.22
2022-09-22T05:54:26.119Z,101362.06
2022-09-22T05:59:28.577Z,101355.94
2022-09-22T06:04:31.232Z,101359.38
2022-09-22T06:09:35.016Z,101351.69
2022-09-22T06:14:37.762Z,101358.44
2022-09-22T06:19:41.560Z,101356.00
2022-09-22T06:24:45.891Z,101354.47
2022-09-22T06:29:48.684Z,101363.59
2022-09-22T06:34:51.494Z,101366.09
2022-09-22T06:39:55.424Z,101370.97
2022-09-22T06:44:57.880Z,101361.13
2022-09-22T06:50:02.300Z,101362.94
2022-09-22T06:55:07.260Z,101368.16
2022-09-22T07:00:11.282Z,101359.53
2022-09-22T07:05:18.609Z,101362.34
2022-09-22T07:10:22.364Z,101359.06
2022-09-22T07:15:24.768Z,101359.69
2022-09-22T07:20:28.956Z,101363.44
2022-09-22T07:25:35.907Z,101364.09
2022-09-22T07:30:40.228Z,101359.97
2022-09-22T07:35:42.767Z,101360.81
2022-09-22T07:40:54.784Z,101362.78
2022-09-22T07:45:58.327Z,101370.22
2022-09-22T07:51:00.752Z,101362.81
2022-09-22T07:56:06.208Z,101363.94
2022-09-22T08:01:09.929Z,101364.09
2022-09-22T08:06:13.464Z,101365.44
2022-09-22T08:11:19.064Z,101361.28
2022-09-22T08:16:22.597Z,101365.63
2022-09-22T08:21:25.994Z,101364.03
2022-09-22T08:26:29.851Z,101361.34
2022-09-22T08:31:33.276Z,101363.47
2022-09-22T08:36:37.753Z,101365.25
2022-09-22T08:41:47.021Z,101357.72
2022-09-22T08:46:51.308Z,101360.84
2022-09-22T08:51:58.831Z,101359.59
2022-09-22T08:57:15.590Z,101356.13
2022-09-22T09:02:36.326Z,101360.84
2022-09-22T09:07:48.389Z,101358.59
2022-09-22T09:13:09.077Z,101364.97
2022-09-22T09:18:15.686Z,101354.56
2022-09-22T09:23:20.156Z,101357.66
2022-09-22T09:28:33.774Z,101353.06
2022-09-22T09:33:43.740Z,101354.81
2022-09-22T09:38:51.854Z,101350.88
2022-09-22T09:43:57.682Z,101338.47
2022-09-22T09:49:08.132Z,101340.94
2022-09-22T09:54:16.971Z,101330.75
2022-09-22T09:59:45.415Z,101326.81
2022-09-22T10:04:52.889Z,101335.78
2022-09-22T10:09:57.084Z,101338.09
2022-09-22T10:15:02.480Z,101332.28
2022-09-22T10:20:20.359Z,101317.06
2022-09-22T10:25:24.970Z,101310.31
2022-09-22T10:30:37.229Z,101311.09
2022-09-22T10:35:41.185Z,101312.41
2022-09-22T10:40:48.755Z,101312.97
2022-09-22T10:46:12.822Z,101317.84
2022-09-22T10:51:27.217Z,101316.75
2022-09-22T10:56:37.578Z,101317.88
2022-09-22T11:01:57.040Z,101317.31
2022-09-22T11:07:32.715Z,101309.16
2022-09-22T11:12:49.497Z,101299.63
2022-09-22T11:18:08.102Z,101295.81
2022-09-22T11:23:47.376Z,101290.59
2022-09-22T11:29:07.641Z,101293.63
2022-09-22T11:34:42.993Z,101290.22
2022-09-22T11:39:52.994Z,101290.16
2022-09-22T11:45:06.185Z,101278.09
2022-09-22T11:50:25.532Z,101280.22
2022-09-22T11:55:37.456Z,101276.38
2022-09-22T12:00:45.658Z,101263.19
2022-09-22T12:05:54.364Z,101255.34
2022-09-22T12:10:57.395Z,101248.19
2022-09-22T12:21:24.376Z,101231.69
2022-09-22T12:26:30.910Z,101231.69
2022-09-22T12:31:36.206Z,101227.97
2022-09-22T12:36:41.285Z,101223.41
2022-09-22T12:41:48.068Z,101216.41
2022-09-22T12:46:51.592Z,101222.47
2022-09-22T12:51:55.327Z,101218.69
2022-09-22T12:57:00.379Z,101219.34
2022-09-22T13:02:27.412Z,101213.72
2022-09-22T13:07:37.410Z,101212.59
2022-09-22T13:12:39.939Z,101217.06
2022-09-22T13:17:44.624Z,101203.16
2022-09-22T13:22:48.726Z,101205.00
2022-09-22T13:28:06.568Z,101202.25
2022-09-22T13:33:19.808Z,101192.31
2022-09-22T13:38:24.861Z,101203.06
2022-09-22T13:43:31.918Z,101194.53
2022-09-22T13:48:37.287Z,101174.81
2022-09-22T13:53:46.204Z,101184.47
2022-09-22T13:58:51.380Z,101180.94
2022-09-22T14:03:55.190Z,101167.97
2022-09-22T14:09:01.605Z,101163.31
2022-09-22T14:14:06.763Z,101159.81
2022-09-22T14:19:24.113Z,101150.72
2022-09-22T14:24:29.920Z,101153.94
2022-09-22T14:29:35.374Z,101147.06
2022-09-22T14:34:39.080Z,101154.81
2022-09-22T14:39:46.760Z,101135.91
2022-09-22T14:44:51.272Z,101133.09
2022-09-22T14:50:14.340Z,101139.72
2022-09-22T14:55:28.729Z,101125.84
2022-09-22T15:00:49.373Z,101126.34
2022-09-22T15:05:52.329Z,101126.53
2022-09-22T15:10:59.324Z,101119.75
2022-09-22T15:21:11.738Z,101121.63
2022-09-22T15:26:22.893Z,101120.44
2022-09-22T15:31:28.287Z,101123.72
2022-09-22T15:36:33.310Z,101124.97
2022-09-22T15:41:37.496Z,101120.88
2022-09-22T15:46:41.019Z,101121.19
2022-09-22T15:51:45.361Z,101120.38
2022-09-22T15:56:52.268Z,101114.66
2022-09-22T16:01:57.159Z,101114.91
2022-09-22T16:07:03.034Z,101120.25
2022-09-22T16:12:11.003Z,101113.13
2022-09-22T16:17:13.628Z,101103.41
2022-09-22T16:22:17.353Z,101104.38
2022-09-22T16:27:21.764Z,101106.41
2022-09-22T16:32:24.453Z,101114.47
2022-09-22T16:37:27.198Z,101104.81
2022-09-22T16:42:30.998Z,101117.97
2022-09-22T16:47:33.915Z,101111.34
2022-09-22T16:52:38.138Z,101110.16
2022-09-22T16:57:42.469Z,101103.66
2022-09-22T17:02:45.869Z,101105.34
2022-09-22T17:07:49.959Z,101109.56
2022-09-22T17:12:56.269Z,101105.50
2022-09-22T17:17:58.882Z,101098.66
2022-09-22T17:23:01.963Z,101101.13
2022-09-22T17:28:06.495Z,101113.34
2022-09-22T17:33:09.232Z,101099.97
2022-09-22T17:38:11.810Z,101108.66
2022-09-22T17:43:20.285Z,101108.22
2022-09-22T17:48:40.102Z,101104.59
2022-09-22T17:54:00.635Z,101106.13
2022-09-22T17:59:04.906Z,101104.09
2022-09-22T18:04:07.444Z,101104.41
2022-09-22T18:09:09.872Z,101110.25
2022-09-22T18:14:14.736Z,101106.69
2022-09-22T18:19:17.387Z,101110.22
2022-09-22T18:24:20.351Z,101110.00
2022-09-22T18:29:25.151Z,101121.28
2022-09-22T18:34:31.804Z,101111.13
2022-09-22T18:39:35.240Z,101115.25
2022-09-22T18:44:39.969Z,101115.50
2022-09-22T18:49:43.075Z,101119.00
2022-09-22T18:54:46.678Z,101121.91
2022-09-22T18:59:51.025Z,101123.59
2022-09-22T19:04:53.965Z,101122.38
2022-09-22T19:09:56.545Z,101120.88
2022-09-22T19:15:01.374Z,101119.50
2022-09-22T19:20:04.216Z,101135.56
2022-09-22T19:25:07.520Z,101128.69
2022-09-22T19:30:13.261Z,101121.53
2022-09-22T19:35:17.174Z,101114.09
2022-09-22T19:40:20.432Z,101117.34
2022-09-22T19:45:27.389Z,101124.31
2022-09-22T19:50:30.175Z,101118.34
2022-09-22T19:55:33.162Z,101114.56
2022-09-22T20:00:39.829Z,101115.69
2022-09-22T20:05:42.544Z,101113.09
2022-09-22T20:11:16.355Z,101111.06
2022-09-22T20:16:21.970Z,101111.22
2022-09-22T20:21:28.885Z,101098.75
2022-09-22T20:26:32.289Z,101105.78
2022-09-22T20:31:36.406Z,101111.44
2022-09-22T20:36:39.342Z,101105.25
2022-09-22T20:41:42.290Z,101098.84
2022-09-22T20:46:48.315Z,101095.75
2022-09-22T20:51:51.580Z,101101.63
2022-09-22T20:56:57.279Z,101098.31
2022-09-22T21:02:04.088Z,101101.59
2022-09-22T21:07:06.933Z,101103.88
2022-09-22T21:12:10.021Z,101101.59
2022-09-22T21:17:15.460Z,101103.84
2022-09-22T21:22:18.106Z,101098.38
2022-09-22T21:27:21.333Z,101109.25
2022-09-22T21:32:25.458Z,101099.31
2022-09-22T21:37:28.126Z,101104.44
2022-09-22T21:42:31.457Z,101096.91
2022-09-22T21:47:35.488Z,101090.66
2022-09-22T21:52:38.798Z,101086.38
2022-09-22T21:57:41.241Z,101087.19
2022-09-22T22:03:02.615Z,101092.00
2022-09-22T22:08:06.190Z,101087.53
2022-09-22T22:13:09.404Z,101077.63
2022-09-22T22:18:13.192Z,101078.03
2022-09-22T22:23:15.593Z,101083.34
2022-09-22T22:28:18.072Z,101079.69
2022-09-22T22:33:22.462Z,101065.63
2022-09-22T22:38:25.762Z,101073.16
2022-09-22T22:43:28.217Z,101067.56
2022-09-22T22:48:32.471Z,101069.81
2022-09-22T22:53:36.017Z,101074.53
2022-09-22T22:58:39.639Z,101074.88
2022-09-22T23:03:45.941Z,101068.06
2022-09-22T23:08:48.787Z,101075.34
2022-09-22T23:13:54.791Z,101067.09
2022-09-22T23:19:01.334Z,101053.53
2022-09-22T23:24:05.111Z,101045.94
2022-09-22T23:29:07.697Z,101041.91
2022-09-22T23:34:11.553Z,101034.50
2022-09-22T23:39:14.069Z,101031.94
2022-09-22T23:44:16.841Z,101026.84
2022-09-22T23:49:20.895Z,101019.03
2022-09-22T23:54:23.611Z,101018.22
2022-09-22T23:59:26.043Z,101025.31
